Time;durP1;ratioP1;P1;durP2;ratioP2;P2;SDS_P1;SDS_P2;PMS_P1;PMS_P2;Temp;Humidity;BMP_temperature;BMP_pressure;BME280_temperature;BME280_humidity;BME280_pressure;Samples;Min_cycle;Max_cycle;Signal;HPM_P1;HPM_P2
2021/07/28 00:00:11;;;;;;;34.95;26.35;;;15.70;99.90;;;;;;5058863;28;20119;-66
2021/07/28 00:02:39;;;;;;;35.90;27.05;;;15.70;99.90;;;;;;5058456;28;20089;-66
2021/07/28 00:05:06;;;;;;;33.10;26.13;;;15.80;99.90;;;;;;5058516;28;20115;-65
2021/07/28 00:07:32;;;;;;;42.75;27.92;;;15.90;99.90;;;;;;5058684;28;20028;-65
2021/07/28 00:09:57;;;;;;;37.45;27.00;;;15.80;99.90;;;;;;5058401;28;20738;-65
2021/07/28 00:12:23;;;;;;;43.30;28.08;;;15.80;99.90;;;;;;5058809;28;20437;-65
2021/07/28 00:14:49;;;;;;;37.28;27.58;;;15.80;99.90;;;;;;5056869;28;20621;-65
2021/07/28 00:17:15;;;;;;;46.90;28.95;;;15.80;99.90;;;;;;5058435;28;20103;-65
2021/07/28 00:25:03;;;;;;;40.42;28.98;;;15.70;99.90;;;;;;5057895;28;20143;-66
2021/07/28 00:27:29;;;;;;;44.67;30.60;;;15.70;99.90;;;;;;5058076;28;20090;-65
2021/07/28 00:29:55;;;;;;;48.00;32.05;;;15.70;99.90;;;;;;5058406;28;20563;-66
2021/07/28 00:32:20;;;;;;;47.10;32.33;;;15.60;99.90;;;;;;5058325;28;20174;-66
2021/07/28 00:34:46;;;;;;;47.40;33.25;;;15.60;99.90;;;;;;5057791;28;20036;-64
2021/07/28 00:37:12;;;;;;;57.75;34.10;;;15.70;99.90;;;;;;5058093;28;20448;-65
2021/07/28 00:39:38;;;;;;;61.20;38.17;;;15.70;99.90;;;;;;5057909;28;20024;-65
2021/07/28 00:42:04;;;;;;;57.63;36.70;;;15.70;99.90;;;;;;5058184;28;20035;-66
2021/07/28 00:44:30;;;;;;;54.45;35.72;;;15.80;99.90;;;;;;5057920;28;20036;-65
2021/07/28 00:46:55;;;;;;;54.53;35.38;;;15.90;99.90;;;;;;5058151;28;20032;-65
2021/07/28 00:49:23;;;;;;;56.95;35.67;;;15.90;99.90;;;;;;5057994;28;20731;-66
2021/07/28 00:51:49;;;;;;;55.83;36.58;;;16.00;99.90;;;;;;5057844;28;20032;-65
2021/07/28 00:54:15;;;;;;;60.20;35.25;;;15.90;99.90;;;;;;5057558;28;20106;-66
2021/07/28 00:56:43;;;;;;;50.88;35.15;;;16.00;99.90;;;;;;5057923;28;20028;-66
2021/07/28 00:59:09;;;;;;;58.25;36.05;;;16.10;99.90;;;;;;5057535;28;20029;-65
2021/07/28 01:01:38;;;;;;;58.80;36.25;;;16.10;99.90;;;;;;5057836;28;20025;-66
2021/07/28 01:04:04;;;;;;;58.85;36.33;;;16.10;99.90;;;;;;5057622;28;20036;-65
2021/07/28 01:06:33;;;;;;;60.80;37.65;;;16.10;99.90;;;;;;5057450;28;20360;-65
2021/07/28 01:09:00;;;;;;;64.70;38.58;;;16.20;99.90;;;;;;5061316;28;20441;-65
2021/07/28 01:11:27;;;;;;;66.40;39.65;;;16.10;99.90;;;;;;5061826;28;20479;-65
2021/07/28 01:13:55;;;;;;;64.88;39.20;;;16.20;99.90;;;;;;5051991;28;20342;-65
2021/07/28 01:16:23;;;;;;;71.63;40.63;;;16.20;99.90;;;;;;5061961;28;20021;-65
2021/07/28 01:18:51;;;;;;;73.00;42.15;;;16.30;99.90;;;;;;5061751;28;20033;-65
2021/07/28 01:21:19;;;;;;;69.85;40.65;;;16.30;99.90;;;;;;5061630;28;20056;-65
2021/07/28 01:23:46;;;;;;;66.07;40.67;;;16.40;99.90;;;;;;5061843;28;20400;-65
2021/07/28 01:26:14;;;;;;;69.97;41.80;;;16.40;99.90;;;;;;5061769;28;20084;-64
2021/07/28 01:28:41;;;;;;;70.15;41.72;;;16.50;99.90;;;;;;5061429;28;20040;-65
2021/07/28 01:31:10;;;;;;;59.80;40.38;;;16.40;99.90;;;;;;5061733;28;20037;-65
2021/07/28 01:33:38;;;;;;;71.75;41.75;;;16.50;99.90;;;;;;5061374;28;20035;-65
2021/07/28 01:36:05;;;;;;;67.80;41.22;;;16.50;99.90;;;;;;5061786;28;20029;-65
2021/07/28 01:38:31;;;;;;;63.22;41.00;;;16.50;99.90;;;;;;5061573;28;20036;-65
2021/07/28 01:40:59;;;;;;;58.30;39.03;;;16.60;99.90;;;;;;5061412;28;20664;-64
2021/07/28 01:43:27;;;;;;;69.15;40.22;;;16.60;99.90;;;;;;5061369;28;20356;-64
2021/07/28 01:45:54;;;;;;;64.78;41.08;;;16.60;99.90;;;;;;5060862;28;20036;-65
2021/07/28 01:48:20;;;;;;;63.03;39.80;;;16.60;99.90;;;;;;5061417;28;20058;-65
2021/07/28 01:50:46;;;;;;;67.60;39.95;;;16.60;99.90;;;;;;5061250;28;20025;-65
2021/07/28 01:53:13;;;;;;;66.63;37.22;;;16.60;99.90;;;;;;5061006;28;20025;-65
2021/07/28 01:55:40;;;;;;;51.80;36.33;;;16.60;99.90;;;;;;5061124;28;20074;-65
2021/07/28 01:58:05;;;;;;;52.90;35.88;;;16.60;99.90;;;;;;5060912;28;20064;-65
2021/07/28 02:00:31;;;;;;;53.72;35.83;;;16.60;99.90;;;;;;5061064;28;20119;-64
2021/07/28 02:03:06;;;;;;;55.72;34.92;;;16.60;99.90;;;;;;5061331;28;20452;-65
2021/07/28 02:05:40;;;;;;;50.90;34.13;;;16.60;99.90;;;;;;5061050;28;20439;-64
2021/07/28 02:08:08;;;;;;;57.28;35.85;;;16.60;99.90;;;;;;5060743;28;20087;-63
2021/07/28 02:10:37;;;;;;;53.65;36.20;;;16.60;99.90;;;;;;5060899;28;20430;-62
2021/07/28 02:13:04;;;;;;;59.75;36.55;;;16.60;99.90;;;;;;5060329;28;20024;-62
2021/07/28 02:15:32;;;;;;;60.67;36.97;;;16.60;99.90;;;;;;5060483;28;20448;-63
2021/07/28 02:17:59;;;;;;;54.33;35.45;;;16.50;99.90;;;;;;5060449;28;20029;-63
2021/07/28 02:20:27;;;;;;;50.63;32.92;;;16.50;99.90;;;;;;5050699;28;20439;-63
2021/07/28 02:22:53;;;;;;;54.92;34.50;;;16.60;99.90;;;;;;5060293;28;20480;-64
2021/07/28 02:25:20;;;;;;;56.53;34.10;;;16.60;99.90;;;;;;5059991;28;20381;-64
2021/07/28 02:27:46;;;;;;;50.92;35.83;;;16.50;99.90;;;;;;5060383;28;20103;-65
2021/07/28 02:30:13;;;;;;;51.58;33.28;;;16.50;99.90;;;;;;5060517;28;20574;-65
2021/07/28 02:32:40;;;;;;;51.45;33.47;;;16.50;99.90;;;;;;5060583;28;20035;-64
2021/07/28 02:35:07;;;;;;;53.90;32.70;;;16.50;99.90;;;;;;5060354;28;20567;-65
2021/07/28 02:37:34;;;;;;;49.45;33.17;;;16.40;99.90;;;;;;5060295;28;20506;-64
2021/07/28 02:40:00;;;;;;;58.17;33.33;;;16.50;99.90;;;;;;5060483;28;20024;-65
2021/07/28 02:42:26;;;;;;;53.20;33.72;;;16.50;99.90;;;;;;5060267;28;20028;-65
2021/07/28 02:44:52;;;;;;;49.55;31.73;;;16.40;99.90;;;;;;5060260;28;20486;-65
2021/07/28 02:47:18;;;;;;;47.95;32.33;;;16.40;99.90;;;;;;5060087;28;20119;-64
2021/07/28 02:49:43;;;;;;;44.70;33.80;;;16.40;99.90;;;;;;5059813;28;20345;-65
2021/07/28 02:52:09;;;;;;;54.42;34.40;;;16.40;99.90;;;;;;5060240;28;20060;-65
2021/07/28 02:54:35;;;;;;;49.83;32.40;;;16.40;99.90;;;;;;5060215;28;21033;-65
2021/07/28 02:57:01;;;;;;;53.15;33.55;;;16.50;99.90;;;;;;5060282;28;20131;-65
2021/07/28 02:59:27;;;;;;;53.80;35.05;;;16.50;99.90;;;;;;5060033;28;20032;-65
2021/07/28 03:01:53;;;;;;;52.47;34.20;;;16.50;99.90;;;;;;5059404;28;20029;-65
2021/07/28 03:04:37;;;;;;;57.13;35.63;;;16.50;99.90;;;;;;5059996;28;20034;-65
2021/07/28 03:07:03;;;;;;;52.83;33.92;;;16.50;99.90;;;;;;5059696;28;20030;-65
2021/07/28 03:09:29;;;;;;;53.33;35.65;;;16.50;99.90;;;;;;5058959;28;20039;-65
2021/07/28 03:11:55;;;;;;;50.45;34.63;;;16.50;99.90;;;;;;5060063;28;20025;-65
2021/07/28 03:14:21;;;;;;;57.67;35.28;;;16.50;99.90;;;;;;5059414;28;20319;-66
2021/07/28 03:16:46;;;;;;;52.80;34.17;;;16.40;99.90;;;;;;5059277;28;20582;-65
2021/07/28 03:19:12;;;;;;;53.70;34.97;;;16.50;99.90;;;;;;5059680;28;20051;-65
2021/07/28 03:21:38;;;;;;;45.53;32.80;;;16.50;99.90;;;;;;5059169;28;20494;-65
2021/07/28 03:24:04;;;;;;;52.95;33.72;;;16.40;99.90;;;;;;5059834;28;20467;-65
2021/07/28 03:26:30;;;;;;;62.92;34.08;;;16.50;99.90;;;;;;5058742;28;20052;-65
2021/07/28 03:28:56;;;;;;;48.15;33.25;;;16.50;99.90;;;;;;5059089;28;20134;-65
2021/07/28 03:31:22;;;;;;;50.83;32.92;;;16.40;99.90;;;;;;5058317;28;20034;-65
2021/07/28 03:33:48;;;;;;;48.70;34.42;;;16.40;99.90;;;;;;5059449;28;20024;-65
2021/07/28 03:36:13;;;;;;;56.97;34.40;;;16.40;99.90;;;;;;5059466;28;20098;-64
2021/07/28 03:38:39;;;;;;;53.60;33.88;;;16.50;99.90;;;;;;5058718;28;20147;-64
2021/07/28 03:41:05;;;;;;;49.15;33.90;;;16.50;99.90;;;;;;5058947;28;20032;-65
2021/07/28 03:43:31;;;;;;;56.05;36.50;;;16.50;99.90;;;;;;5058698;28;20538;-64
2021/07/28 03:45:57;;;;;;;54.55;35.03;;;16.40;99.90;;;;;;5058890;28;20082;-65
2021/07/28 03:48:23;;;;;;;55.72;36.10;;;16.40;99.90;;;;;;5058881;28;20028;-65
2021/07/28 03:50:49;;;;;;;49.58;35.10;;;16.40;99.90;;;;;;5059061;28;20364;-64
2021/07/28 03:53:14;;;;;;;52.03;34.78;;;16.40;99.90;;;;;;5059099;28;20032;-65
2021/07/28 03:55:40;;;;;;;59.47;36.45;;;16.40;99.90;;;;;;5058434;28;20031;-64
2021/07/28 03:58:06;;;;;;;52.70;34.10;;;16.40;99.90;;;;;;5058609;28;20024;-64
2021/07/28 04:00:32;;;;;;;50.22;33.47;;;16.40;99.90;;;;;;5058331;28;20104;-64
2021/07/28 04:02:58;;;;;;;53.00;34.42;;;16.40;99.90;;;;;;5058717;28;20422;-64
2021/07/28 04:05:23;;;;;;;51.33;33.47;;;16.40;99.90;;;;;;5058568;28;20060;-65
2021/07/28 04:07:56;;;;;;;49.53;34.33;;;16.40;99.90;;;;;;5058381;28;20784;-65
2021/07/28 04:10:22;;;;;;;55.67;35.75;;;16.50;99.90;;;;;;5058447;28;20062;-65
2021/07/28 04:12:48;;;;;;;55.88;34.78;;;16.50;99.90;;;;;;5058507;28;20484;-66
2021/07/28 04:15:14;;;;;;;47.92;33.28;;;16.40;99.90;;;;;;5057937;28;20143;-64
2021/07/28 04:17:40;;;;;;;48.75;33.58;;;16.40;99.90;;;;;;5058411;28;20039;-64
2021/07/28 04:20:08;;;;;;;46.70;33.72;;;16.40;99.90;;;;;;5058247;28;20491;-66
2021/07/28 04:22:34;;;;;;;48.50;33.00;;;16.40;99.90;;;;;;5057877;28;20941;-67
2021/07/28 04:25:05;;;;;;;45.50;31.38;;;16.40;99.90;;;;;;5057871;28;20060;-66
2021/07/28 04:27:32;;;;;;;51.72;32.80;;;16.50;99.90;;;;;;5058057;28;20040;-67
2021/07/28 04:29:58;;;;;;;46.88;32.35;;;16.40;99.90;;;;;;5057914;28;20045;-67
2021/07/28 04:32:24;;;;;;;48.33;32.40;;;16.40;99.90;;;;;;5058164;28;20047;-67
2021/07/28 04:34:50;;;;;;;45.53;31.42;;;16.40;99.90;;;;;;5058072;28;20123;-67
2021/07/28 04:37:16;;;;;;;49.10;31.08;;;16.40;99.90;;;;;;5058221;28;20031;-67
2021/07/28 04:39:43;;;;;;;45.13;31.95;;;16.40;99.90;;;;;;5058130;28;20060;-66
2021/07/28 04:42:09;;;;;;;41.55;29.25;;;16.40;99.90;;;;;;5055879;28;20298;-67
2021/07/28 04:44:35;;;;;;;39.67;29.10;;;16.40;99.90;;;;;;5058007;28;20025;-66
2021/07/28 04:47:00;;;;;;;39.50;28.52;;;16.40;99.90;;;;;;5057690;28;20439;-66
2021/07/28 04:49:26;;;;;;;44.83;28.42;;;16.50;99.90;;;;;;5058036;28;20071;-66
2021/07/28 04:51:52;;;;;;;42.47;27.67;;;16.50;99.90;;;;;;5057613;28;20097;-65
2021/07/28 04:54:18;;;;;;;36.90;26.50;;;16.50;99.90;;;;;;5057909;28;20444;-66
2021/07/28 04:56:44;;;;;;;41.80;27.98;;;16.50;99.90;;;;;;5056713;28;20432;-66
2021/07/28 04:59:10;;;;;;;40.08;25.77;;;16.50;99.90;;;;;;5058010;28;20032;-66
2021/07/28 05:01:35;;;;;;;37.25;25.85;;;16.50;99.90;;;;;;5058067;28;20459;-66
2021/07/28 05:04:01;;;;;;;37.42;25.23;;;16.50;99.90;;;;;;5057421;28;20407;-66
2021/07/28 05:06:27;;;;;;;43.33;28.20;;;16.40;99.90;;;;;;5058036;28;20123;-66
2021/07/28 05:08:53;;;;;;;41.15;26.63;;;16.40;99.90;;;;;;5057461;28;20040;-65
2021/07/28 05:11:19;;;;;;;35.40;26.15;;;16.40;99.90;;;;;;5057806;28;20476;-65
2021/07/28 05:13:44;;;;;;;40.53;25.60;;;16.50;99.90;;;;;;5057524;28;20050;-66
2021/07/28 05:16:10;;;;;;;38.72;26.33;;;16.50;99.90;;;;;;5057800;28;20461;-66
2021/07/28 05:18:36;;;;;;;34.92;25.80;;;16.60;99.90;;;;;;5057601;28;20078;-67
2021/07/28 05:21:02;;;;;;;31.83;23.65;;;16.60;99.90;;;;;;5057652;28;20035;-66
2021/07/28 05:23:27;;;;;;;30.95;23.08;;;16.60;99.90;;;;;;5057655;28;20036;-66
2021/07/28 05:25:53;;;;;;;37.92;23.77;;;16.70;99.90;;;;;;5057132;28;20135;-65
2021/07/28 05:28:19;;;;;;;32.88;21.40;;;16.70;99.90;;;;;;5057889;28;20071;-66
2021/07/28 05:30:45;;;;;;;31.75;20.30;;;16.80;99.90;;;;;;5057225;28;20039;-67
2021/07/28 05:33:11;;;;;;;31.88;20.60;;;16.80;99.90;;;;;;5057630;28;20055;-66
2021/07/28 05:35:37;;;;;;;31.60;20.92;;;16.80;99.90;;;;;;5055568;28;20124;-67
2021/07/28 05:38:04;;;;;;;29.30;20.20;;;16.70;99.90;;;;;;5057078;28;20963;-68
2021/07/28 05:40:30;;;;;;;27.73;19.30;;;16.80;99.90;;;;;;5057541;28;20035;-67
2021/07/28 05:42:56;;;;;;;27.05;18.08;;;16.70;99.90;;;;;;5057491;28;20033;-68
2021/07/28 05:45:22;;;;;;;25.33;17.13;;;16.70;99.90;;;;;;5057398;28;20423;-67
2021/07/28 05:47:48;;;;;;;27.13;17.45;;;16.80;99.90;;;;;;5057123;28;20589;-67
2021/07/28 05:50:15;;;;;;;25.42;17.48;;;16.70;99.90;;;;;;5057287;28;20471;-67
2021/07/28 05:52:42;;;;;;;23.30;16.65;;;16.90;99.90;;;;;;5057162;28;20052;-67
2021/07/28 05:55:08;;;;;;;23.80;16.35;;;16.80;99.90;;;;;;5060129;28;20735;-67
2021/07/28 05:57:34;;;;;;;24.00;14.05;;;16.70;99.90;;;;;;5060380;28;20131;-67
2021/07/28 06:00:00;;;;;;;18.90;13.65;;;16.70;99.90;;;;;;5061020;28;20377;-67
2021/07/28 06:02:25;;;;;;;22.55;13.45;;;16.80;99.90;;;;;;5060658;28;20029;-67
2021/07/28 06:04:51;;;;;;;17.38;12.43;;;16.70;99.90;;;;;;5060986;28;20081;-67
2021/07/28 06:07:17;;;;;;;21.45;12.68;;;16.80;99.90;;;;;;5060783;28;20024;-67
2021/07/28 06:09:43;;;;;;;18.55;13.13;;;16.90;99.90;;;;;;5060808;28;20040;-67
2021/07/28 06:12:09;;;;;;;21.30;12.75;;;16.90;99.90;;;;;;5060794;28;20028;-64
2021/07/28 06:14:35;;;;;;;20.17;13.00;;;16.90;99.90;;;;;;5060258;28;20036;-67
2021/07/28 06:17:01;;;;;;;19.00;11.98;;;16.90;99.90;;;;;;5061115;28;20025;-68
2021/07/28 06:19:27;;;;;;;19.30;12.35;;;16.90;99.90;;;;;;5061219;28;20028;-68
2021/07/28 06:21:53;;;;;;;15.80;11.95;;;16.90;99.90;;;;;;5060878;28;20033;-67
2021/07/28 06:24:18;;;;;;;16.38;12.55;;;16.90;99.90;;;;;;5060960;28;20527;-67
2021/07/28 06:26:44;;;;;;;15.23;11.20;;;16.90;99.90;;;;;;5060351;28;20054;-67
2021/07/28 06:29:10;;;;;;;16.48;11.68;;;16.90;99.90;;;;;;5060567;28;20121;-67
2021/07/28 06:31:36;;;;;;;18.48;12.10;;;16.90;99.90;;;;;;5060480;28;20121;-66
2021/07/28 06:34:02;;;;;;;15.60;12.52;;;16.90;99.90;;;;;;5060442;28;20032;-66
2021/07/28 06:36:28;;;;;;;24.35;13.63;;;16.90;99.90;;;;;;5060554;28;20024;-66
2021/07/28 06:38:54;;;;;;;16.23;12.75;;;16.90;99.90;;;;;;5060223;28;20492;-66
2021/07/28 06:41:19;;;;;;;20.20;13.32;;;16.90;99.90;;;;;;5060114;28;20139;-66
2021/07/28 06:43:45;;;;;;;21.60;15.90;;;16.90;99.90;;;;;;5059891;28;20503;-66
2021/07/28 06:46:11;;;;;;;25.15;16.13;;;16.90;99.90;;;;;;5060107;28;20021;-67
2021/07/28 06:48:37;;;;;;;19.58;15.27;;;16.90;99.90;;;;;;5060298;28;20624;-67
2021/07/28 06:51:02;;;;;;;23.48;16.48;;;17.00;99.90;;;;;;5060442;28;20036;-67
2021/07/28 06:53:28;;;;;;;23.65;17.85;;;17.00;99.90;;;;;;5060155;28;20028;-67
2021/07/28 06:55:54;;;;;;;28.38;18.80;;;17.10;99.90;;;;;;5060121;28;20043;-66
2021/07/28 06:58:20;;;;;;;28.63;18.45;;;17.20;99.90;;;;;;5060036;28;20028;-67
2021/07/28 07:00:46;;;;;;;29.50;19.98;;;17.20;99.90;;;;;;5059381;28;20555;-67
2021/07/28 07:03:12;;;;;;;30.48;19.70;;;17.20;99.90;;;;;;5059863;28;20543;-68
2021/07/28 07:05:38;;;;;;;30.35;20.70;;;17.30;99.90;;;;;;5059004;28;20079;-67
2021/07/28 07:08:04;;;;;;;30.77;20.70;;;17.20;99.90;;;;;;5059570;28;20437;-68
2021/07/28 07:10:30;;;;;;;33.72;21.73;;;17.20;99.90;;;;;;5059759;28;20036;-68
2021/07/28 07:12:56;;;;;;;32.97;22.80;;;17.10;99.90;;;;;;5059452;28;20021;-68
2021/07/28 07:15:21;;;;;;;32.47;22.60;;;17.10;99.90;;;;;;5059703;28;20475;-67
2021/07/28 07:17:52;;;;;;;27.88;20.95;;;17.20;99.90;;;;;;5059737;28;20033;-67
2021/07/28 07:20:18;;;;;;;35.60;22.67;;;17.20;99.90;;;;;;5057615;28;20502;-67
2021/07/28 07:22:44;;;;;;;27.98;21.58;;;17.10;99.90;;;;;;5057577;28;20143;-67
2021/07/28 07:25:10;;;;;;;28.88;20.48;;;17.10;99.90;;;;;;5058967;28;20048;-67
2021/07/28 07:27:37;;;;;;;26.52;19.20;;;17.10;99.90;;;;;;5059140;28;20549;-67
2021/07/28 07:30:04;;;;;;;35.33;19.85;;;17.00;99.90;;;;;;5059086;28;20041;-67
2021/07/28 07:32:30;;;;;;;27.27;18.17;;;17.10;99.90;;;;;;5059092;28;20028;-67
2021/07/28 07:34:57;;;;;;;23.27;17.63;;;17.10;99.90;;;;;;5059001;28;20032;-67
2021/07/28 07:37:23;;;;;;;25.80;18.02;;;17.10;99.90;;;;;;5058865;28;20127;-67
2021/07/28 07:39:49;;;;;;;20.55;16.35;;;17.10;99.90;;;;;;5059035;28;20516;-67
2021/07/28 07:42:15;;;;;;;21.05;15.73;;;17.10;99.90;;;;;;5059153;28;20039;-67
2021/07/28 07:44:43;;;;;;;20.50;14.88;;;17.20;99.90;;;;;;5059473;28;20677;-66
2021/07/28 07:47:09;;;;;;;19.92;16.02;;;17.20;99.90;;;;;;5058567;28;20519;-67
2021/07/28 07:49:35;;;;;;;23.38;16.75;;;17.30;99.90;;;;;;5058790;28;20442;-67
2021/07/28 07:52:01;;;;;;;21.35;14.77;;;17.40;99.90;;;;;;5058874;28;20027;-67
2021/07/28 07:54:27;;;;;;;21.63;15.38;;;17.40;99.90;;;;;;5058889;28;20078;-67
2021/07/28 07:56:53;;;;;;;21.77;15.45;;;17.50;99.90;;;;;;5058886;28;20084;-67
2021/07/28 07:59:19;;;;;;;18.67;14.57;;;17.60;99.90;;;;;;5058383;28;20046;-67
2021/07/28 08:01:45;;;;;;;18.75;13.13;;;17.60;99.90;;;;;;5058844;28;20111;-66
2021/07/28 08:04:11;;;;;;;19.63;13.40;;;17.70;99.90;;;;;;5058514;28;20029;-67
2021/07/28 08:06:37;;;;;;;15.57;10.68;;;17.90;99.90;;;;;;5058260;28;20040;-67
2021/07/28 08:09:02;;;;;;;13.73;10.27;;;18.00;99.90;;;;;;5058579;28;20491;-67
2021/07/28 08:11:28;;;;;;;15.38;8.77;;;18.10;99.90;;;;;;5058198;28;20036;-67
2021/07/28 08:13:54;;;;;;;16.58;9.57;;;18.10;99.90;;;;;;5058489;28;20055;-67
2021/07/28 08:16:22;;;;;;;12.80;8.52;;;18.20;99.90;;;;;;5058243;28;20295;-67
2021/07/28 08:18:49;;;;;;;10.68;7.30;;;18.30;99.90;;;;;;5058483;28;20045;-67
2021/07/28 08:21:15;;;;;;;11.60;6.88;;;18.40;99.90;;;;;;5058365;28;20032;-67
2021/07/28 08:23:46;;;;;;;13.43;7.93;;;18.40;99.90;;;;;;5058257;28;20039;-67
2021/07/28 08:26:13;;;;;;;12.60;6.43;;;18.40;99.90;;;;;;5058233;28;20481;-67
2021/07/28 08:28:40;;;;;;;9.68;6.30;;;18.30;99.90;;;;;;5058173;28;20400;-67
2021/07/28 08:31:06;;;;;;;9.85;6.63;;;18.30;99.90;;;;;;5058126;28;20824;-67
2021/07/28 08:33:32;;;;;;;20.75;7.15;;;18.30;99.90;;;;;;5057859;28;20020;-67
2021/07/28 08:35:59;;;;;;;9.27;5.90;;;18.30;99.90;;;;;;5058133;28;20060;-67
2021/07/28 08:38:25;;;;;;;10.63;6.40;;;18.30;99.90;;;;;;5058266;28;20420;-67
2021/07/28 08:40:59;;;;;;;9.50;4.85;;;18.30;99.90;;;;;;5057766;28;20024;-68
2021/07/28 08:43:28;;;;;;;7.57;4.47;;;18.30;99.90;;;;;;5057834;28;20590;-68
2021/07/28 08:45:55;;;;;;;9.20;3.50;;;18.50;99.90;;;;;;5057386;28;20052;-68
2021/07/28 08:48:29;;;;;;;3.70;2.88;;;18.70;99.90;;;;;;5057487;28;20427;-68
2021/07/28 08:50:56;;;;;;;5.28;3.10;;;18.80;99.90;;;;;;5057728;28;20616;-67
2021/07/28 08:53:26;;;;;;;8.63;3.25;;;18.80;99.90;;;;;;5057493;28;20545;-67
2021/07/28 08:55:53;;;;;;;9.30;3.40;;;18.70;99.90;;;;;;5057568;28;20040;-67
2021/07/28 08:58:22;;;;;;;7.97;3.13;;;18.70;99.90;;;;;;5057913;28;20085;-67
2021/07/28 09:00:49;;;;;;;3.53;2.88;;;18.60;99.90;;;;;;5057615;28;20039;-67
2021/07/28 09:03:14;;;;;;;6.78;3.20;;;18.50;99.90;;;;;;5057864;28;20036;-68
2021/07/28 09:05:45;;;;;;;6.68;3.17;;;18.50;99.90;;;;;;5057848;28;20071;-68
2021/07/28 09:08:34;;;;;;;4.43;3.78;;;18.70;99.90;;;;;;5057854;28;20400;-67
2021/07/28 09:11:08;;;;;;;4.80;3.70;;;18.80;99.90;;;;;;5057450;28;20125;-67
2021/07/28 09:13:36;;;;;;;5.30;3.60;;;18.80;99.90;;;;;;5057353;28;20045;-67
2021/07/28 09:16:07;;;;;;;5.60;3.33;;;18.70;99.90;;;;;;5057511;28;20519;-66
2021/07/28 09:18:38;;;;;;;3.88;3.00;;;18.60;99.90;;;;;;5057768;28;20036;-66
2021/07/28 09:21:19;;;;;;;6.20;3.65;;;18.60;99.90;;;;;;5057249;28;20043;-66
2021/07/28 09:23:50;;;;;;;5.43;3.13;;;18.90;99.90;;;;;;5057829;28;20039;-67
2021/07/28 09:26:30;;;;;;;6.78;4.22;;;19.20;99.90;;;;;;5047253;28;20102;-65
2021/07/28 09:29:15;;;;;;;6.80;3.75;;;19.60;99.90;;;;;;5058819;28;20044;-65
2021/07/28 09:31:44;;;;;;;7.90;3.95;;;19.60;99.90;;;;;;5061412;28;20550;-68
2021/07/28 09:34:23;;;;;;;5.95;3.45;;;19.90;99.90;;;;;;5061380;28;20032;-67
2021/07/28 09:37:00;;;;;;;6.80;3.72;;;19.90;99.90;;;;;;5061017;28;20376;-67
2021/07/28 09:39:39;;;;;;;6.57;3.88;;;20.00;99.90;;;;;;5060974;28;20426;-67
2021/07/28 09:42:13;;;;;;;8.10;3.58;;;20.00;99.90;;;;;;5061288;28;20089;-67
2021/07/28 09:44:41;;;;;;;6.15;3.85;;;20.00;99.90;;;;;;5061171;28;20058;-67
2021/07/28 09:47:18;;;;;;;6.60;3.90;;;20.00;99.90;;;;;;5061180;28;20036;-68
2021/07/28 09:50:01;;;;;;;7.85;3.55;;;20.00;99.90;;;;;;5060527;28;20511;-69
2021/07/28 09:52:34;;;;;;;9.32;4.50;;;19.90;99.90;;;;;;5060874;28;20025;-67
2021/07/28 09:55:27;;;;;;;6.85;4.03;;;19.80;99.90;;;;;;5060977;28;20841;-67
2021/07/28 09:57:55;;;;;;;9.45;4.43;;;19.80;99.90;;;;;;5061115;28;20542;-67
2021/07/28 10:00:21;;;;;;;7.63;4.55;;;19.80;99.90;;;;;;5060695;28;20447;-67
2021/07/28 10:02:48;;;;;;;8.57;4.40;;;19.70;99.90;;;;;;5060952;28;20029;-67
2021/07/28 10:05:19;;;;;;;6.20;3.97;;;19.80;99.90;;;;;;5060981;28;20032;-67
2021/07/28 10:07:49;;;;;;;7.22;4.22;;;19.90;99.90;;;;;;5060490;28;20070;-67
2021/07/28 10:10:19;;;;;;;5.47;3.47;;;20.10;99.90;;;;;;5060468;28;20051;-67
2021/07/28 10:12:49;;;;;;;5.32;2.80;;;20.40;99.90;;;;;;5060880;28;20036;-67
2021/07/28 10:15:14;;;;;;;;;;;20.70;99.90;;;;;;5061134;28;20563;-67
2021/07/28 10:17:42;;;;;;;4.35;2.45;;;20.60;99.90;;;;;;5060960;28;19916;-67
2021/07/28 10:20:09;;;;;;;5.57;2.75;;;20.30;99.90;;;;;;5060420;28;20033;-67
2021/07/28 10:22:37;;;;;;;6.70;2.60;;;20.20;99.90;;;;;;5060289;28;20036;-67
2021/07/28 10:25:16;;;;;;;4.93;2.70;;;20.20;99.90;;;;;;5060149;28;20060;-68
2021/07/28 10:27:51;;;;;;;6.55;3.15;;;20.30;99.90;;;;;;5060676;28;20075;-67
2021/07/28 10:30:21;;;;;;;6.20;3.10;;;20.70;99.90;;;;;;5060409;28;20299;-67
2021/07/28 10:32:47;;;;;;;;;;;21.20;99.90;;;;;;5059416;28;20182;-67
2021/07/28 10:35:24;;;;;;;7.60;3.60;;;21.40;99.90;;;;;;5060404;28;20349;-68
2021/07/28 10:38:14;;;;;;;8.82;4.28;;;21.50;99.90;;;;;;5060436;28;20078;-67
2021/07/28 10:40:51;;;;;;;8.45;4.68;;;22.00;99.90;;;;;;5058319;28;20099;-68
2021/07/28 10:43:17;;;;;;;7.45;4.28;;;21.90;99.90;;;;;;5059700;28;20509;-68
2021/07/28 10:45:59;;;;;;;6.22;4.32;;;21.80;99.90;;;;;;5060135;28;20024;-68
2021/07/28 10:48:36;;;;;;;9.68;4.72;;;21.50;99.90;;;;;;5059870;28;20133;-67
2021/07/28 10:51:02;;;;;;;12.30;5.07;;;21.00;99.90;;;;;;5060332;28;20495;-67
2021/07/28 10:53:48;;;;;;;9.13;4.70;;;20.60;99.90;;;;;;5060235;28;20124;-68
2021/07/28 10:56:14;;;;;;;10.60;5.65;;;20.40;99.90;;;;;;5060216;28;20044;-68
2021/07/28 10:58:39;;;;;;;10.68;5.25;;;20.40;99.90;;;;;;5060084;28;20020;-66
2021/07/28 11:01:05;;;;;;;9.65;5.07;;;20.40;99.90;;;;;;5059319;28;20525;-66
2021/07/28 11:03:33;;;;;;;8.20;4.88;;;20.60;99.90;;;;;;5059858;28;20039;-65
2021/07/28 11:06:15;;;;;;;9.20;5.25;;;20.70;99.90;;;;;;5060016;28;20034;-65
2021/07/28 11:08:41;;;;;;;11.05;5.78;;;20.50;99.90;;;;;;5059991;28;20085;-68
2021/07/28 11:11:07;;;;;;;8.75;5.30;;;20.20;99.90;;;;;;5059713;28;20148;-67
2021/07/28 11:13:34;;;;;;;7.88;5.30;;;19.70;99.90;;;;;;5059464;28;20454;-68
2021/07/28 11:16:04;;;;;;;9.73;5.15;;;19.40;99.90;;;;;;5059286;28;20367;-65
2021/07/28 11:18:32;;;;;;;9.10;5.47;;;19.00;99.90;;;;;;5059760;28;20020;-66
2021/07/28 11:21:08;;;;;;;7.88;5.97;;;19.00;99.90;;;;;;5059493;28;20028;-68
2021/07/28 11:23:34;;;;;;;8.52;5.93;;;18.90;99.90;;;;;;5059058;28;20480;-69
2021/07/28 11:26:02;;;;;;;10.85;5.55;;;19.10;99.90;;;;;;5059065;28;20091;-69
2021/07/28 11:28:28;;;;;;;9.02;6.22;;;19.70;99.90;;;;;;5057291;28;20616;-69
2021/07/28 11:30:55;;;;;;;11.98;6.53;;;20.00;99.90;;;;;;5059129;28;20028;-67
2021/07/28 11:33:22;;;;;;;12.60;7.03;;;20.10;99.90;;;;;;5059256;28;20488;-67
2021/07/28 11:35:50;;;;;;;8.13;5.95;;;20.20;99.90;;;;;;5059267;28;20388;-67
2021/07/28 11:38:18;;;;;;;10.95;6.90;;;20.30;99.90;;;;;;5058994;28;20036;-67
2021/07/28 11:40:46;;;;;;;10.60;7.00;;;20.40;99.90;;;;;;5059012;28;20464;-69
2021/07/28 11:43:22;;;;;;;10.75;7.07;;;20.80;99.90;;;;;;5058955;28;20024;-69
2021/07/28 11:45:48;;;;;;;15.73;7.70;;;21.00;99.90;;;;;;5058836;28;20025;-68
2021/07/28 11:48:37;;;;;;;13.40;6.68;;;20.70;99.90;;;;;;5058507;28;20021;-68
2021/07/28 11:51:06;;;;;;;11.90;8.32;;;20.30;99.90;;;;;;5058847;28;20041;-65
2021/07/28 11:53:34;;;;;;;13.85;8.50;;;19.70;99.90;;;;;;5058688;28;20036;-68
2021/07/28 11:56:09;;;;;;;13.95;7.72;;;19.30;99.90;;;;;;5058640;28;20372;-68
2021/07/28 11:58:42;;;;;;;12.63;7.65;;;19.00;99.90;;;;;;5058221;28;20119;-66
2021/07/28 12:01:21;;;;;;;14.45;8.38;;;18.70;99.90;;;;;;5058451;28;20078;-68
2021/07/28 12:03:49;;;;;;;14.40;9.02;;;18.70;99.90;;;;;;5058380;28;20029;-69
2021/07/28 12:06:16;;;;;;;13.65;9.93;;;19.00;99.90;;;;;;5058145;28;20037;-69
2021/07/28 12:08:41;;;;;;;14.90;9.65;;;19.60;99.90;;;;;;5058658;28;20024;-67
2021/07/28 12:11:09;;;;;;;11.55;7.90;;;20.00;99.90;;;;;;5058414;28;20086;-67
2021/07/28 12:13:46;;;;;;;11.27;8.38;;;20.30;99.90;;;;;;5058105;28;20055;-67
2021/07/28 12:16:13;;;;;;;11.88;8.88;;;20.50;99.90;;;;;;5058142;28;20016;-67
2021/07/28 12:18:44;;;;;;;11.88;7.40;;;20.70;99.90;;;;;;5058245;28;20440;-66
2021/07/28 12:21:10;;;;;;;15.02;8.85;;;20.70;99.90;;;;;;5058084;28;20678;-67
2021/07/28 12:23:47;;;;;;;11.38;7.38;;;20.80;99.90;;;;;;5048363;28;20157;-67
2021/07/28 12:26:12;;;;;;;14.13;8.35;;;20.80;99.90;;;;;;5056258;28;20526;-67
2021/07/28 12:28:50;;;;;;;14.38;7.43;;;21.10;99.90;;;;;;5058093;28;20461;-67
2021/07/28 12:31:27;;;;;;;9.43;6.60;;;21.10;99.90;;;;;;5057837;28;20597;-66
2021/07/28 12:33:54;;;;;;;11.95;7.55;;;21.00;99.90;;;;;;5058186;28;20078;-66
2021/07/28 12:36:27;;;;;;;9.68;4.70;;;21.50;99.90;;;;;;5056331;28;20067;-68
2021/07/28 12:46:16;;;;;;;15.68;4.65;;;21.80;99.90;;;;;;5058009;28;20392;-67
2021/07/28 12:48:41;;;;;;;8.70;4.32;;;21.80;99.90;;;;;;5058089;28;20036;-68